Time;durP1;ratioP1;P1;durP2;ratioP2;P2;SDS_P1;SDS_P2;PMS_P1;PMS_P2;Temp;Humidity;BMP_temperature;BMP_pressure;BME280_temperature;BME280_humidity;BME280_pressure;Samples;Min_cycle;Max_cycle;Signal;HPM_P1;HPM_P2
2021/03/11 00:00:36;;;;;;;111.75;53.90;;;51.80;1612.80;;;;;;5007788;28;20120;-73
2021/03/11 00:03:05;;;;;;;113.53;55.67;;;51.80;1612.80;;;;;;5010141;28;20018;-72
2021/03/11 00:05:30;;;;;;;114.22;56.30;;;51.80;1612.80;;;;;;5008744;28;20026;-72
2021/03/11 00:07:56;;;;;;;115.65;57.47;;;51.80;1638.40;;;;;;5009426;28;20097;-71
2021/03/11 00:10:22;;;;;;;126.57;59.45;;;51.70;1664.00;;;;;;5010084;28;20030;-71
2021/03/11 00:12:47;;;;;;;138.45;69.57;;;51.70;1638.40;;;;;;5008416;28;20578;-71
2021/03/11 00:15:17;;;;;;;164.07;80.20;;;51.70;1638.40;;;;;;5008826;28;20049;-71
2021/03/11 00:17:43;;;;;;;176.35;82.38;;;52.10;1638.40;;;;;;5008412;28;20030;-70
2021/03/11 00:20:14;;;;;;;175.63;83.25;;;51.60;1638.40;;;;;;5009356;28;20030;-71
2021/03/11 00:22:40;;;;;;;171.05;83.10;;;51.60;1638.40;;;;;;5006810;28;20530;-71
2021/03/11 00:25:10;;;;;;;174.10;80.78;;;51.50;1664.00;;;;;;5010044;28;20022;-71
2021/03/11 00:27:37;;;;;;;170.00;80.85;;;51.40;1689.60;;;;;;5006192;28;20105;-72
2021/03/11 00:30:08;;;;;;;171.55;80.07;;;51.40;1664.00;;;;;;5009449;28;20018;-71
2021/03/11 00:32:33;;;;;;;160.13;76.68;;;51.50;1638.40;;;;;;5008513;28;20034;-70
2021/03/11 00:34:59;;;;;;;160.98;76.25;;;51.50;1664.00;;;;;;5009538;28;20122;-72
2021/03/11 00:37:25;;;;;;;158.10;75.28;;;51.50;1664.00;;;;;;5007779;28;20065;-71
2021/03/11 00:39:51;;;;;;;150.50;72.05;;;51.50;1664.00;;;;;;5009458;28;20100;-71
2021/03/11 00:42:16;;;;;;;161.38;71.78;;;51.50;1638.40;;;;;;5009052;28;20026;-71
2021/03/11 00:44:42;;;;;;;163.23;75.97;;;51.50;1638.40;;;;;;5007246;28;20084;-72
2021/03/11 00:47:08;;;;;;;198.10;92.20;;;51.50;1664.00;;;;;;5008204;28;20026;-70
2021/03/11 00:49:34;;;;;;;171.88;82.47;;;51.40;1664.00;;;;;;5009411;28;20018;-71
2021/03/11 00:52:01;;;;;;;148.48;73.20;;;51.40;1664.00;;;;;;5007558;28;20101;-73
2021/03/11 00:54:28;;;;;;;154.75;73.10;;;51.30;1689.60;;;;;;5009745;28;20061;-75
2021/03/11 00:56:53;;;;;;;139.30;69.68;;;51.30;1689.60;;;;;;5009952;28;20388;-74
2021/03/11 00:59:19;;;;;;;130.95;64.30;;;51.30;1689.60;;;;;;5010303;28;20029;-70
2021/03/11 01:01:45;;;;;;;81.43;46.08;;;51.40;1664.00;;;;;;5010534;28;20073;-71
2021/03/11 01:04:12;;;;;;;93.85;48.65;;;51.30;1664.00;;;;;;5010192;28;20026;-71
2021/03/11 01:06:38;;;;;;;94.43;50.30;;;26.50;1664.00;;;;;;5010472;28;20058;-73
2021/03/11 01:09:04;;;;;;;95.35;49.80;;;26.40;1664.00;;;;;;5010549;28;20101;-70
2021/03/11 01:11:30;;;;;;;99.32;49.88;;;26.40;1689.60;;;;;;5010172;28;20026;-71
2021/03/11 01:13:56;;;;;;;93.95;49.35;;;26.50;1689.60;;;;;;5010277;28;20096;-70
2021/03/11 01:16:22;;;;;;;94.18;48.67;;;26.40;1689.60;;;;;;5010213;28;20057;-70
2021/03/11 01:18:48;;;;;;;92.18;48.05;;;26.40;1715.20;;;;;;5008741;28;20045;-72
2021/03/11 01:21:14;;;;;;;93.20;49.45;;;26.40;1715.20;;;;;;5010763;28;20531;-72
2021/03/11 01:23:40;;;;;;;95.82;50.13;;;26.50;1715.20;;;;;;5010413;28;20038;-72
2021/03/11 01:26:06;;;;;;;114.90;58.70;;;26.50;1715.20;;;;;;5009577;28;20084;-71
2021/03/11 01:28:31;;;;;;;110.10;57.13;;;26.50;1715.20;;;;;;5012428;28;20077;-73
2021/03/11 01:30:57;;;;;;;115.65;63.13;;;26.40;1715.20;;;;;;5013652;28;20022;-72
2021/03/11 01:33:23;;;;;;;109.22;56.80;;;26.40;1766.40;;;;;;5012093;28;20042;-72
2021/03/11 01:35:49;;;;;;;118.00;62.08;;;26.30;1792.00;;;;;;5013596;28;20366;-72
2021/03/11 01:38:15;;;;;;;105.30;53.40;;;26.40;1792.00;;;;;;5012532;28;20022;-72
2021/03/11 01:40:40;;;;;;;93.63;48.10;;;26.20;1792.00;;;;;;5013392;28;20025;-73
2021/03/11 01:43:06;;;;;;;98.45;51.13;;;26.30;1792.00;;;;;;5013505;28;20396;-73
2021/03/11 01:45:32;;;;;;;86.90;44.95;;;26.30;1792.00;;;;;;5013538;28;20045;-73
2021/03/11 01:47:58;;;;;;;80.80;43.20;;;26.30;1766.40;;;;;;5013471;28;20065;-72
2021/03/11 01:50:24;;;;;;;78.78;42.10;;;26.30;1766.40;;;;;;5013556;28;20065;-72
2021/03/11 01:52:51;;;;;;;85.20;42.35;;;26.10;1792.00;;;;;;5013232;28;20480;-72
2021/03/11 01:55:18;;;;;;;84.57;43.05;;;26.10;1792.00;;;;;;5011526;28;20402;-72
2021/03/11 01:57:45;;;;;;;85.03;45.35;;;26.20;1766.40;;;;;;5013391;28;20014;-71
2021/03/11 02:00:13;;;;;;;81.00;45.28;;;26.10;1792.00;;;;;;5011753;28;20070;-71
2021/03/11 02:02:43;;;;;;;82.22;43.17;;;26.00;1817.60;;;;;;5012889;28;20022;-72
2021/03/11 02:05:11;;;;;;;78.97;41.80;;;26.10;1792.00;;;;;;5012874;28;20398;-72
2021/03/11 02:07:37;;;;;;;75.55;40.83;;;26.00;1817.60;;;;;;5011542;28;20025;-71
2021/03/11 02:10:06;;;;;;;75.28;40.47;;;26.00;1817.60;;;;;;5012994;28;20054;-72
2021/03/11 02:12:47;;;;;;;77.22;41.53;;;26.00;1817.60;;;;;;5013032;28;20476;-72
2021/03/11 02:15:32;;;;;;;74.30;39.63;;;25.90;1843.20;;;;;;5012567;28;20068;-72
2021/03/11 02:18:09;;;;;;;65.22;37.40;;;25.90;1843.20;;;;;;5010756;28;20168;-72
2021/03/11 02:21:01;;;;;;;74.15;39.92;;;26.00;1843.20;;;;;;5011446;28;20133;-72
2021/03/11 02:24:03;;;;;;;71.13;39.70;;;25.90;1843.20;;;;;;5012489;28;20029;-73
2021/03/11 02:26:53;;;;;;;74.35;40.05;;;26.00;1843.20;;;;;;5012413;28;20022;-71
2021/03/11 02:29:25;;;;;;;99.53;53.00;;;26.00;1817.60;;;;;;5012391;28;20053;-71
2021/03/11 02:31:54;;;;;;;156.50;83.18;;;25.90;1817.60;;;;;;5012661;28;20018;-71
2021/03/11 02:34:24;;;;;;;79.18;44.38;;;26.00;1817.60;;;;;;5012378;28;20038;-71
2021/03/11 02:36:54;;;;;;;67.20;37.92;;;25.90;1817.60;;;;;;5012244;28;20025;-71
2021/03/11 02:39:24;;;;;;;64.63;36.65;;;25.90;1817.60;;;;;;5011086;28;20026;-71
2021/03/11 02:41:53;;;;;;;63.28;36.63;;;25.80;1817.60;;;;;;5012145;28;20101;-71
2021/03/11 02:44:21;;;;;;;67.00;37.75;;;25.70;1843.20;;;;;;5011962;28;20072;-71
2021/03/11 02:46:49;;;;;;;79.78;42.78;;;25.90;1817.60;;;;;;5012110;28;20380;-72
2021/03/11 02:49:16;;;;;;;76.20;39.97;;;25.80;1843.20;;;;;;5012115;28;20033;-71
2021/03/11 02:51:42;;;;;;;74.75;39.85;;;25.70;1843.20;;;;;;5010547;28;20030;-71
2021/03/11 02:54:10;;;;;;;79.47;41.33;;;25.80;1843.20;;;;;;5011899;28;20036;-74
2021/03/11 02:56:37;;;;;;;80.53;41.03;;;25.90;1817.60;;;;;;5012735;28;20051;-77
2021/03/11 02:59:06;;;;;;;86.22;42.83;;;25.80;1843.20;;;;;;5013072;28;20080;-77
2021/03/11 03:01:32;;;;;;;85.45;41.65;;;25.80;1843.20;;;;;;5012765;28;20022;-77
2021/03/11 03:03:59;;;;;;;77.65;39.72;;;25.80;1843.20;;;;;;5012445;28;20069;-74
2021/03/11 03:06:27;;;;;;;74.00;39.35;;;25.80;1843.20;;;;;;5012532;28;20173;-71
2021/03/11 03:08:53;;;;;;;87.50;42.20;;;25.80;1843.20;;;;;;5011778;28;20033;-71
2021/03/11 03:11:19;;;;;;;81.70;39.38;;;25.90;1843.20;;;;;;5011729;28;20018;-71
2021/03/11 03:13:45;;;;;;;77.00;38.72;;;25.80;1843.20;;;;;;5010035;28;20056;-73
2021/03/11 03:16:16;;;;;;;83.20;40.70;;;25.70;1843.20;;;;;;5011333;28;20530;-71
2021/03/11 03:18:43;;;;;;;;;;;25.70;1843.20;;;;;;5011002;28;20026;-70
2021/03/11 03:21:11;;;;;;;90.07;40.85;;;25.70;1843.20;;;;;;5010198;28;20323;-72
2021/03/11 03:23:39;;;;;;;91.32;40.38;;;25.60;1868.80;;;;;;5011466;28;20026;-75
2021/03/11 03:26:05;;;;;;;83.10;40.15;;;25.60;1868.80;;;;;;5010683;28;20033;-72
2021/03/11 03:28:31;;;;;;;80.30;40.60;;;25.70;1868.80;;;;;;5011447;28;20025;-73
2021/03/11 03:30:57;;;;;;;96.10;43.30;;;25.60;1894.40;;;;;;5011364;28;20022;-71
2021/03/11 03:33:22;;;;;;;103.18;43.72;;;25.60;1894.40;;;;;;5009662;28;20041;-72
2021/03/11 03:35:48;;;;;;;89.93;40.47;;;25.70;1868.80;;;;;;5011238;28;20160;-72
2021/03/11 03:38:14;;;;;;;92.30;40.88;;;25.70;1868.80;;;;;;5011487;28;20060;-73
2021/03/11 03:40:40;;;;;;;82.50;39.83;;;25.70;1894.40;;;;;;5009613;28;20042;-72
2021/03/11 03:43:15;;;;;;;83.88;39.30;;;25.60;1894.40;;;;;;5011161;28;20131;-72
2021/03/11 03:46:00;;;;;;;87.80;39.72;;;25.60;1894.40;;;;;;5011181;28;20097;-71
2021/03/11 03:48:36;;;;;;;96.05;42.90;;;25.70;1868.80;;;;;;5009834;28;20026;-71
2021/03/11 03:51:03;;;;;;;104.25;42.83;;;25.60;1868.80;;;;;;5009389;28;20412;-71
2021/03/11 03:53:37;;;;;;;88.88;42.90;;;25.70;1868.80;;;;;;5010817;28;20037;-71
2021/03/11 03:56:07;;;;;;;87.78;42.78;;;25.70;1868.80;;;;;;5011130;28;20029;-72
2021/03/11 03:58:34;;;;;;;78.05;40.30;;;0.80;1894.40;;;;;;5011096;28;20018;-72
2021/03/11 04:01:00;;;;;;;75.38;39.45;;;0.80;1894.40;;;;;;5009665;28;20116;-72
2021/03/11 04:03:27;;;;;;;79.53;40.40;;;0.80;1894.40;;;;;;5010826;28;20018;-72
2021/03/11 04:05:55;;;;;;;80.05;40.30;;;0.80;1920.00;;;;;;5011018;28;20107;-71
2021/03/11 04:08:23;;;;;;;81.38;41.90;;;0.80;1894.40;;;;;;5010779;28;20042;-71
2021/03/11 04:10:49;;;;;;;81.00;41.63;;;0.80;1894.40;;;;;;5010887;28;20054;-71
2021/03/11 04:13:16;;;;;;;85.15;42.90;;;0.80;1894.40;;;;;;5008572;28;20038;-71
2021/03/11 04:15:42;;;;;;;82.63;41.10;;;0.80;1894.40;;;;;;5010943;28;20054;-71
2021/03/11 04:18:09;;;;;;;84.68;42.30;;;0.80;1894.40;;;;;;5010604;28;20018;-71
2021/03/11 04:20:36;;;;;;;90.10;43.17;;;0.80;1894.40;;;;;;5010792;28;20030;-71
2021/03/11 04:23:02;;;;;;;83.63;41.75;;;0.80;1894.40;;;;;;5010759;28;20018;-71
2021/03/11 04:25:28;;;;;;;86.38;40.55;;;0.80;1894.40;;;;;;5010622;28;20045;-71
2021/03/11 04:27:54;;;;;;;81.20;42.80;;;0.80;1894.40;;;;;;5009427;28;20030;-71
2021/03/11 04:30:20;;;;;;;80.88;40.53;;;0.70;1894.40;;;;;;5008915;28;20034;-71
2021/03/11 04:32:47;;;;;;;88.18;43.38;;;0.80;1894.40;;;;;;5010534;28;20025;-71
2021/03/11 04:35:13;;;;;;;83.60;42.65;;;0.60;1945.60;;;;;;5009494;28;20034;-71
2021/03/11 04:37:39;;;;;;;88.10;41.13;;;0.60;1920.00;;;;;;5010492;28;20026;-70
2021/03/11 04:40:07;;;;;;;85.63;43.22;;;0.70;1894.40;;;;;;5010676;28;20026;-70
2021/03/11 04:42:34;;;;;;;88.60;43.72;;;0.70;1894.40;;;;;;5010618;28;20084;-70
2021/03/11 04:45:01;;;;;;;90.05;43.92;;;0.70;1894.40;;;;;;5009003;28;20113;-70
2021/03/11 04:47:28;;;;;;;85.32;43.20;;;0.70;1894.40;;;;;;5008780;28;20074;-71
2021/03/11 04:49:54;;;;;;;97.50;43.58;;;0.70;1920.00;;;;;;5010266;28;20350;-73
2021/03/11 04:52:20;;;;;;;86.10;44.35;;;0.60;1945.60;;;;;;5010679;28;20531;-71
2021/03/11 04:54:46;;;;;;;87.38;42.58;;;0.50;1945.60;;;;;;5010984;28;20034;-75
2021/03/11 04:57:12;;;;;;;91.60;43.03;;;0.60;1920.00;;;;;;5012410;28;20018;-72
2021/03/11 04:59:38;;;;;;;88.18;45.03;;;0.70;1894.40;;;;;;5010384;28;20028;-71
2021/03/11 05:02:05;;;;;;;91.85;45.65;;;0.70;1894.40;;;;;;5012443;28;20030;-71
2021/03/11 05:04:33;;;;;;;82.93;42.88;;;0.70;1894.40;;;;;;5014293;28;20076;-71
2021/03/11 05:06:59;;;;;;;91.63;43.65;;;0.70;1894.40;;;;;;5013927;28;20018;-74
2021/03/11 05:09:24;;;;;;;94.78;45.20;;;0.70;1868.80;;;;;;5014244;28;20042;-73
2021/03/11 05:11:50;;;;;;;96.75;45.60;;;0.70;1868.80;;;;;;5011723;28;20049;-72
2021/03/11 05:14:16;;;;;;;106.68;48.08;;;0.70;1868.80;;;;;;5012109;28;20473;-72
2021/03/11 05:16:42;;;;;;;110.50;52.97;;;0.80;1868.80;;;;;;5013649;28;20050;-72
2021/03/11 05:19:07;;;;;;;130.93;62.88;;;0.80;1894.40;;;;;;5011599;28;20034;-72
2021/03/11 05:21:33;;;;;;;139.55;65.75;;;0.80;1868.80;;;;;;5011461;28;20022;-73
2021/03/11 05:23:59;;;;;;;152.45;73.72;;;0.70;1868.80;;;;;;5012603;28;20469;-72
2021/03/11 05:26:26;;;;;;;160.05;80.70;;;0.80;1868.80;;;;;;5011663;28;20029;-72
2021/03/11 05:28:53;;;;;;;202.02;98.10;;;0.80;1868.80;;;;;;5011384;28;20090;-72
2021/03/11 05:31:19;;;;;;;223.50;111.22;;;0.80;1894.40;;;;;;5012834;28;20022;-72
2021/03/11 05:33:45;;;;;;;205.98;103.70;;;0.80;1868.80;;;;;;5012276;28;20041;-72
2021/03/11 05:36:10;;;;;;;152.68;76.57;;;0.80;1868.80;;;;;;5012215;28;20084;-74
2021/03/11 05:38:36;;;;;;;166.13;80.78;;;0.80;1868.80;;;;;;5012540;28;20018;-72
2021/03/11 05:41:02;;;;;;;132.15;64.03;;;0.80;1894.40;;;;;;5012515;28;20530;-73
2021/03/11 05:43:29;;;;;;;106.63;53.97;;;0.90;1894.40;;;;;;5009129;28;20381;-72
2021/03/11 05:45:56;;;;;;;127.63;56.42;;;25.60;1868.80;;;;;;5012580;28;20050;-74
2021/03/11 05:48:25;;;;;;;130.45;62.30;;;25.60;1868.80;;;;;;5012570;28;20065;-73
2021/03/11 05:50:52;;;;;;;123.15;59.00;;;25.60;1843.20;;;;;;5009742;28;20060;-74
2021/03/11 05:53:19;;;;;;;103.32;51.00;;;25.70;1868.80;;;;;;5012162;28;20030;-73
2021/03/11 05:55:45;;;;;;;115.88;57.78;;;25.70;1868.80;;;;;;5010849;28;20030;-74
2021/03/11 05:58:11;;;;;;;121.63;61.75;;;25.70;1894.40;;;;;;5011984;28;20472;-74
2021/03/11 06:00:37;;;;;;;141.30;63.60;;;25.80;1894.40;;;;;;5012346;28;20056;-71
2021/03/11 06:03:05;;;;;;;121.63;62.80;;;25.80;1868.80;;;;;;5012158;28;20053;-70
2021/03/11 06:05:32;;;;;;;132.32;65.68;;;25.80;1868.80;;;;;;5009355;28;20029;-70
2021/03/11 06:07:59;;;;;;;143.75;72.18;;;25.80;1894.40;;;;;;5011829;28;20105;-70
2021/03/11 06:10:24;;;;;;;129.23;67.47;;;25.80;1868.80;;;;;;5012067;28;20018;-72
2021/03/11 06:12:51;;;;;;;133.05;65.72;;;25.90;1868.80;;;;;;5009679;28;20029;-73
2021/03/11 06:15:17;;;;;;;142.23;68.40;;;26.00;1843.20;;;;;;5010119;28;20057;-71
2021/03/11 06:17:43;;;;;;;148.93;76.13;;;26.00;1843.20;;;;;;5011915;28;20010;-71
2021/03/11 06:20:11;;;;;;;166.73;81.28;;;26.10;1843.20;;;;;;5009198;28;20052;-70
2021/03/11 06:22:37;;;;;;;187.02;90.07;;;26.20;1817.60;;;;;;5010096;28;20017;-71
2021/03/11 06:25:04;;;;;;;193.50;94.35;;;26.30;1817.60;;;;;;5011855;28;20112;-70
2021/03/11 06:27:30;;;;;;;164.13;79.38;;;26.30;1817.60;;;;;;5009132;28;20025;-71
2021/03/11 06:29:57;;;;;;;163.55;82.88;;;26.40;1817.60;;;;;;5011359;28;20544;-71
2021/03/11 06:32:23;;;;;;;162.50;81.72;;;26.40;1817.60;;;;;;5011786;28;20053;-71
2021/03/11 06:34:49;;;;;;;167.93;83.97;;;26.50;1792.00;;;;;;5008453;28;20037;-71
2021/03/11 06:37:16;;;;;;;165.18;86.38;;;51.20;1843.20;;;;;;5009333;28;20038;-70
2021/03/11 06:39:44;;;;;;;189.50;96.88;;;51.30;1843.20;;;;;;5011584;28;20476;-72
2021/03/11 06:42:11;;;;;;;167.27;87.75;;;51.40;1817.60;;;;;;5007286;28;20042;-72
2021/03/11 06:44:44;;;;;;;147.65;77.25;;;51.50;1792.00;;;;;;5010874;28;20026;-71
2021/03/11 06:47:14;;;;;;;131.27;68.97;;;51.60;1740.80;;;;;;5008648;28;20106;-71
2021/03/11 06:49:59;;;;;;;139.13;67.13;;;51.60;1740.80;;;;;;5011243;28;20037;-71
2021/03/11 06:52:26;;;;;;;138.25;69.78;;;51.80;1740.80;;;;;;5010737;28;20022;-71
2021/03/11 06:55:07;;;;;;;123.47;61.05;;;51.90;1689.60;;;;;;5011214;28;20030;-71
2021/03/11 06:57:38;;;;;;;124.03;63.70;;;52.00;1664.00;;;;;;5008409;28;20014;-71
2021/03/11 07:00:13;;;;;;;125.43;64.10;;;52.10;1689.60;;;;;;5011178;28;20032;-72
2021/03/11 07:02:58;;;;;;;152.13;81.20;;;76.90;1664.00;;;;;;5009530;28;20077;-72
2021/03/11 07:05:28;;;;;;;257.17;129.85;;;77.00;1638.40;;;;;;5010115;28;20029;-72
2021/03/11 07:08:05;;;;;;;303.52;149.85;;;77.10;1638.40;;;;;;5009254;28;20379;-73
2021/03/11 07:10:31;;;;;;;316.92;157.15;;;77.10;1664.00;;;;;;5008447;28;20112;-73
2021/03/11 07:12:59;;;;;;;311.48;155.85;;;77.20;1638.40;;;;;;5008734;28;20014;-72
2021/03/11 07:15:27;;;;;;;319.77;160.02;;;77.40;1638.40;;;;;;5010274;28;20058;-73
2021/03/11 07:17:54;;;;;;;360.75;194.05;;;77.50;1638.40;;;;;;5011010;28;20025;-71
2021/03/11 07:20:28;;;;;;;310.52;155.63;;;77.50;1638.40;;;;;;5010505;28;20212;-71
2021/03/11 07:23:06;;;;;;;372.80;193.75;;;77.60;1638.40;;;;;;5008752;28;20025;-71
2021/03/11 07:25:31;;;;;;;330.85;166.88;;;77.70;1612.80;;;;;;5007698;28;20044;-71
2021/03/11 07:27:58;;;;;;;282.02;139.75;;;102.40;1612.80;;;;;;5010263;28;20627;-72
2021/03/11 07:30:27;;;;;;;255.45;131.68;;;102.50;1612.80;;;;;;5010762;28;20028;-71
2021/03/11 07:32:58;;;;;;;233.43;116.82;;;102.60;1587.20;;;;;;5010712;28;20080;-74
2021/03/11 07:35:28;;;;;;;;;;;102.70;1587.20;;;;;;5010795;28;20403;-73
2021/03/11 07:37:58;;;;;;;206.32;107.25;;;102.80;1561.60;;;;;;5009386;28;19905;-73
2021/03/11 07:40:25;;;;;;;175.43;97.57;;;102.80;1587.20;;;;;;5009291;28;20037;-73
2021/03/11 07:42:51;;;;;;;177.75;95.45;;;102.90;1587.20;;;;;;5007199;28;20025;-73
2021/03/11 07:45:17;;;;;;;184.75;104.25;;;103.00;1587.20;;;;;;5010365;28;20034;-73
2021/03/11 07:47:43;;;;;;;177.88;97.75;;;103.10;1587.20;;;;;;5010472;28;20036;-72
2021/03/11 07:50:12;;;;;;;173.23;92.22;;;103.20;1561.60;;;;;;5009381;28;20021;-71
2021/03/11 07:52:39;;;;;;;171.60;96.43;;;103.30;1536.00;;;;;;5010207;28;20018;-72
2021/03/11 07:55:07;;;;;;;168.32;91.32;;;128.00;1561.60;;;;;;5009918;28;20026;-73
2021/03/11 07:57:38;;;;;;;138.90;78.28;;;128.20;1561.60;;;;;;5006167;28;20026;-72
2021/03/11 08:00:05;;;;;;;208.55;106.28;;;128.20;1536.00;;;;;;5010319;28;20026;-74
2021/03/11 08:02:33;;;;;;;149.63;82.35;;;128.40;1536.00;;;;;;5009861;28;20026;-72
2021/03/11 08:05:00;;;;;;;138.70;78.28;;;128.40;1510.40;;;;;;5009379;28;20486;-72
2021/03/11 08:07:27;;;;;;;123.60;69.40;;;128.60;1484.80;;;;;;5008890;28;20021;-73
2021/03/11 08:09:57;;;;;;;101.95;55.72;;;128.70;1484.80;;;;;;5007540;28;20027;-71
2021/03/11 08:12:30;;;;;;;86.80;50.80;;;128.70;1459.20;;;;;;5009527;28;20092;-73
2021/03/11 08:15:06;;;;;;;77.68;45.60;;;128.80;1484.80;;;;;;5006119;28;20062;-74
2021/03/11 08:17:55;;;;;;;71.63;43.35;;;128.90;1484.80;;;;;;5010036;28;20088;-71
2021/03/11 08:20:24;;;;;;;73.85;44.47;;;153.60;1484.80;;;;;;5006650;28;20068;-71
2021/03/11 08:22:53;;;;;;;68.85;40.30;;;153.70;1459.20;;;;;;5009842;28;20026;-72
2021/03/11 08:25:24;;;;;;;70.35;40.90;;;153.80;1459.20;;;;;;5009713;28;20026;-72
2021/03/11 08:27:51;;;;;;;84.88;44.08;;;153.80;1433.60;;;;;;5009463;28;20026;-72
2021/03/11 08:30:52;;;;;;;79.63;47.20;;;153.90;1459.20;;;;;;5008193;28;20113;-72
2021/03/11 08:33:21;;;;;;;;;;;154.00;1433.60;;;;;;4933471;29;20037;-71
2021/03/11 08:35:51;;;;;;;69.25;38.67;;;154.10;1408.00;;;;;;4934356;29;20502;-72
2021/03/11 08:38:20;;;;;;;84.65;49.25;;;154.20;1408.00;;;;;;4951292;29;20031;-71
2021/03/11 08:41:00;;;;;;;65.82;39.38;;;154.30;1408.00;;;;;;4953343;29;20036;-71
2021/03/11 08:43:35;;;;;;;62.22;39.22;;;154.40;1408.00;;;;;;4951927;29;20066;-72
2021/03/11 08:46:22;;;;;;;63.47;39.38;;;179.20;1408.00;;;;;;4935299;29;20031;-69
2021/03/11 08:48:57;;;;;;;69.90;39.63;;;179.30;1382.40;;;;;;4952328;29;20390;-71
2021/03/11 08:51:23;;;;;;;71.70;42.97;;;179.40;1331.20;;;;;;4951810;29;20117;-71
2021/03/11 08:53:50;;;;;;;66.68;41.22;;;179.40;1331.20;;;;;;4952536;29;20102;-69
2021/03/11 08:56:16;;;;;;;67.38;38.88;;;179.60;1305.60;;;;;;4952588;29;20386;-71
2021/03/11 08:59:10;;;;;;;84.65;50.88;;;179.60;1254.40;;;;;;4945101;28;20019;-70
2021/03/11 09:01:49;;;;;;;68.93;39.90;;;179.70;1305.60;;;;;;4950727;29;20039;-72
2021/03/11 09:04:21;;;;;;;60.88;34.80;;;179.90;1305.60;;;;;;4952403;29;20521;-71
2021/03/11 09:06:59;;;;;;;66.43;37.15;;;180.00;1254.40;;;;;;4952065;29;20485;-72
2021/03/11 09:09:48;;;;;;;60.28;36.15;;;180.10;1228.80;;;;;;4996403;28;20070;-71
2021/03/11 09:12:30;;;;;;;59.35;36.08;;;180.10;1228.80;;;;;;5016477;28;20027;-71
2021/03/11 09:14:58;;;;;;;54.47;34.33;;;204.80;1203.20;;;;;;5010069;28;20037;-71
2021/03/11 09:17:28;;;;;;;50.63;32.80;;;204.90;1177.60;;;;;;5011382;28;20061;-71
2021/03/11 09:20:02;;;;;;;50.33;30.53;;;204.90;1152.00;;;;;;5013086;28;20372;-71
2021/03/11 09:22:32;;;;;;;49.58;31.60;;;204.90;1126.40;;;;;;5012795;28;20021;-73
2021/03/11 09:25:04;;;;;;;62.00;34.78;;;205.00;1152.00;;;;;;5009123;28;20040;-71
2021/03/11 09:27:30;;;;;;;50.33;30.38;;;205.20;1203.20;;;;;;5011010;28;20032;-71
2021/03/11 09:29:57;;;;;;;48.60;28.05;;;205.40;1177.60;;;;;;5012895;28;20022;-71
2021/03/11 09:32:31;;;;;;;35.90;23.27;;;205.40;1126.40;;;;;;5011632;28;20022;-71
2021/03/11 09:34:59;;;;;;;41.38;23.00;;;205.40;1024.00;;;;;;5009991;28;20034;-71
2021/03/11 09:37:46;;;;;;;38.75;22.88;;;205.40;1075.20;;;;;;5012554;28;20357;-70
2021/03/11 09:40:20;;;;;;;44.45;29.13;;;205.50;1049.60;;;;;;5012002;28;20021;-70
2021/03/11 09:43:05;;;;;;;46.03;28.58;;;205.60;1126.40;;;;;;5012437;28;20460;-71
2021/03/11 09:45:41;;;;;;;36.55;22.35;;;205.70;1100.80;;;;;;5011761;28;20196;-71
2021/03/11 09:48:10;;;;;;;52.33;28.63;;;230.50;1075.20;;;;;;5012307;28;20045;-72
2021/03/11 09:50:37;;;;;;;54.70;31.17;;;230.50;1024.00;;;;;;5009140;28;20014;-72
2021/03/11 09:53:03;;;;;;;49.80;31.20;;;230.50;1024.00;;;;;;5012449;28;20029;-70
2021/03/11 09:55:30;;;;;;;38.92;23.88;;;230.70;1024.00;;;;;;5010440;28;20041;-72
2021/03/11 09:57:55;;;;;;;31.65;22.77;;;230.70;998.40;;;;;;5011998;28;20025;-71
2021/03/11 10:00:22;;;;;;;35.92;22.40;;;230.80;972.80;;;;;;5010716;28;20439;-72
2021/03/11 10:02:53;;;;;;;28.70;19.98;;;231.00;998.40;;;;;;5011521;28;20029;-71
2021/03/11 10:05:19;;;;;;;;;;;230.90;896.00;;;;;;5010604;28;20022;-70
2021/03/11 10:07:56;;;;;;;45.45;29.63;;;230.90;972.80;;;;;;5012329;28;20002;-72
2021/03/11 10:10:22;;;;;;;39.60;24.15;;;230.90;947.20;;;;;;5010834;28;20037;-72
2021/03/11 10:12:49;;;;;;;37.97;23.88;;;231.00;947.20;;;;;;5009953;28;20056;-71
2021/03/11 10:15:15;;;;;;;32.15;20.80;;;231.10;972.80;;;;;;5011794;28;20054;-71
2021/03/11 10:17:42;;;;;;;46.60;27.10;;;231.10;972.80;;;;;;5011338;28;20492;-71
2021/03/11 10:20:28;;;;;;;54.85;34.33;;;231.20;947.20;;;;;;5010979;28;20105;-73
2021/03/11 10:23:16;;;;;;;69.05;42.88;;;231.20;896.00;;;;;;5008372;28;20026;-72
2021/03/11 10:25:43;;;;;;;46.13;29.08;;;256.00;972.80;;;;;;5009005;28;20029;-72
2021/03/11 10:28:10;;;;;;;59.03;36.58;;;256.10;921.60;;;;;;5009943;28;20045;-72
2021/03/11 10:30:37;;;;;;;37.75;24.27;;;256.20;921.60;;;;;;5011837;28;20021;-71
2021/03/11 10:33:04;;;;;;;36.03;22.33;;;256.30;921.60;;;;;;5011831;28;20404;-72
2021/03/11 10:35:36;;;;;;;28.83;19.15;;;256.40;921.60;;;;;;5010024;28;20038;-73
2021/03/11 10:38:23;;;;;;;29.15;19.92;;;256.60;896.00;;;;;;5012033;28;20018;-72
2021/03/11 10:40:50;;;;;;;27.67;18.73;;;256.70;896.00;;;;;;5010933;28;20033;-72
2021/03/11 10:43:20;;;;;;;43.65;26.80;;;256.80;896.00;;;;;;5009920;28;20028;-72
2021/03/11 10:45:46;;;;;;;35.10;23.10;;;256.80;896.00;;;;;;5010522;28;20022;-71
2021/03/11 10:48:12;;;;;;;45.85;28.73;;;256.90;870.40;;;;;;5011450;28;20072;-73
2021/03/11 10:50:44;;;;;;;30.33;19.80;;;281.60;896.00;;;;;;5010406;28;20100;-71
2021/03/11 10:53:10;;;;;;;27.05;18.75;;;256.90;819.20;;;;;;5011428;28;20018;-72
2021/03/11 10:55:38;;;;;;;37.58;24.52;;;281.60;819.20;;;;;;5008890;28;20044;-72
2021/03/11 10:58:05;;;;;;;34.88;21.88;;;256.90;844.80;;;;;;5011153;28;20021;-72
2021/03/11 11:00:32;;;;;;;29.27;20.15;;;281.90;921.60;;;;;;5011135;28;20034;-71
2021/03/11 11:03:01;;;;;;;27.58;19.40;;;281.80;870.40;;;;;;5011181;28;20014;-70
2021/03/11 11:05:27;;;;;;;29.75;20.55;;;281.80;870.40;;;;;;5010659;28;20472;-71
2021/03/11 11:07:53;;;;;;;28.50;19.27;;;282.10;870.40;;;;;;5011210;28;20184;-71
2021/03/11 11:10:25;;;;;;;24.80;17.73;;;282.10;844.80;;;;;;5010849;28;20508;-70
2021/03/11 11:12:51;;;;;;;25.38;17.48;;;282.10;819.20;;;;;;5010424;28;20024;-70
2021/03/11 11:15:17;;;;;;;26.05;18.67;;;282.20;844.80;;;;;;5010428;28;20049;-71
2021/03/11 11:17:43;;;;;;;27.75;17.58;;;282.30;870.40;;;;;;5010910;28;20476;-71
2021/03/11 11:20:13;;;;;;;22.73;17.00;;;282.40;819.20;;;;;;5010038;28;20487;-71
2021/03/11 11:22:39;;;;;;;28.90;21.50;;;282.40;768.00;;;;;;5008473;28;20014;-71
2021/03/11 11:25:06;;;;;;;24.42;17.35;;;282.30;819.20;;;;;;5009428;28;20022;-71
2021/03/11 11:27:31;;;;;;;26.40;17.08;;;282.50;819.20;;;;;;5010230;28;20029;-71
2021/03/11 11:29:57;;;;;;;25.52;17.70;;;282.50;768.00;;;;;;5011373;28;20025;-72
2021/03/11 11:32:23;;;;;;;25.92;18.65;;;282.50;793.60;;;;;;5010216;28;20022;-71
2021/03/11 11:34:52;;;;;;;23.60;16.30;;;307.20;844.80;;;;;;5011228;28;20030;-71
2021/03/11 11:37:19;;;;;;;24.88;16.15;;;307.40;844.80;;;;;;5009496;28;20026;-70
2021/03/11 11:39:46;;;;;;;23.40;16.63;;;307.40;844.80;;;;;;5010043;28;20061;-70
2021/03/11 11:42:13;;;;;;;26.77;16.38;;;307.40;793.60;;;;;;5011318;28;20022;-71
2021/03/11 11:44:39;;;;;;;29.80;18.63;;;307.40;819.20;;;;;;5009339;28;20040;-71
2021/03/11 11:47:05;;;;;;;22.55;15.13;;;307.40;819.20;;;;;;5011250;28;20037;-71
2021/03/11 11:49:31;;;;;;;20.30;14.63;;;307.60;793.60;;;;;;5009974;28;20087;-71
2021/03/11 11:51:57;;;;;;;19.55;14.93;;;307.60;768.00;;;;;;5011005;28;20022;-71
2021/03/11 11:54:23;;;;;;;20.90;15.18;;;307.80;768.00;;;;;;5011017;28;20127;-71
2021/03/11 11:56:49;;;;;;;22.13;15.60;;;307.80;768.00;;;;;;5007509;28;20484;-72
2021/03/11 11:59:15;;;;;;;22.80;17.95;;;307.80;793.60;;;;;;5009116;28;20083;-72
2021/03/11 12:01:41;;;;;;;22.10;15.88;;;307.80;768.00;;;;;;5009670;28;20030;-71
2021/03/11 12:04:06;;;;;;;26.63;19.00;;;307.90;819.20;;;;;;5006794;28;20103;-72
2021/03/11 12:06:32;;;;;;;26.20;18.58;;;308.00;742.40;;;;;;5010315;28;20049;-73
2021/03/11 12:08:58;;;;;;;22.08;15.57;;;308.00;742.40;;;;;;5008560;28;20110;-72
2021/03/11 12:11:23;;;;;;;20.00;15.20;;;308.10;768.00;;;;;;5009073;28;20026;-72
2021/03/11 12:13:49;;;;;;;24.95;16.80;;;332.80;819.20;;;;;;5010078;28;20113;-73